Time;durP1;ratioP1;P1;durP2;ratioP2;P2;SDS_P1;SDS_P2;PMS_P1;PMS_P2;Temp;Humidity;BMP_temperature;BMP_pressure;BME280_temperature;BME280_humidity;BME280_pressure;Samples;Min_cycle;Max_cycle;Signal;HPM_P1;HPM_P2
2021/11/15 00:00:49;;;;;;;17.45;11.82;;;8.50;84.50;;;;;;5073323;28;20024;-37
2021/11/15 00:03:19;;;;;;;22.30;12.27;;;8.50;84.40;;;;;;5073402;28;20515;-37
2021/11/15 00:05:44;;;;;;;18.23;12.48;;;8.60;84.50;;;;;;5073413;28;20107;-37
2021/11/15 00:08:10;;;;;;;17.85;11.55;;;8.60;84.40;;;;;;5073591;28;20523;-37
2021/11/15 00:10:36;;;;;;;18.42;13.15;;;8.40;84.50;;;;;;5073389;28;20572;-38
2021/11/15 00:13:02;;;;;;;21.50;13.05;;;8.30;84.90;;;;;;5073250;28;20032;-36
2021/11/15 00:15:32;;;;;;;21.95;13.07;;;8.40;84.90;;;;;;5073219;28;20025;-37
2021/11/15 00:17:58;;;;;;;19.98;12.57;;;8.40;84.90;;;;;;5073372;28;20032;-36
2021/11/15 00:20:24;;;;;;;20.85;13.50;;;8.30;84.70;;;;;;5073209;28;20070;-36
2021/11/15 00:22:50;;;;;;;23.73;14.85;;;8.40;84.80;;;;;;5073338;28;20037;-36
2021/11/15 00:25:16;;;;;;;22.08;15.00;;;8.40;84.90;;;;;;5072955;28;20380;-35
2021/11/15 00:27:42;;;;;;;20.42;12.93;;;8.40;85.10;;;;;;5071680;28;20484;-36
2021/11/15 00:30:09;;;;;;;22.88;14.32;;;8.40;85.10;;;;;;5073304;28;20032;-35
2021/11/15 00:32:36;;;;;;;20.38;14.15;;;8.40;85.00;;;;;;5072907;28;20034;-36
2021/11/15 00:35:02;;;;;;;23.75;13.80;;;8.40;85.10;;;;;;5073015;28;20035;-36
2021/11/15 00:37:28;;;;;;;21.42;13.60;;;8.30;85.40;;;;;;5073048;28;20120;-36
2021/11/15 00:39:54;;;;;;;22.58;14.85;;;8.30;85.20;;;;;;5072706;28;20417;-36
2021/11/15 00:42:20;;;;;;;21.95;14.52;;;8.30;85.10;;;;;;5072701;28;20023;-36
2021/11/15 00:44:45;;;;;;;22.83;14.35;;;8.30;85.30;;;;;;5072754;28;20017;-37
2021/11/15 00:47:11;;;;;;;23.02;15.35;;;8.30;85.50;;;;;;5072990;28;20028;-36
2021/11/15 00:49:37;;;;;;;23.75;16.05;;;8.30;85.40;;;;;;5072618;28;20032;-36
2021/11/15 00:52:03;;;;;;;24.45;15.25;;;8.30;85.10;;;;;;5072991;28;20373;-36
2021/11/15 00:54:29;;;;;;;24.77;16.52;;;8.20;85.60;;;;;;5071325;28;20025;-36
2021/11/15 00:56:55;;;;;;;25.55;15.95;;;8.20;85.70;;;;;;5072703;28;20388;-36
2021/11/15 00:59:21;;;;;;;26.25;16.63;;;8.10;86.00;;;;;;5072574;28;20104;-37
2021/11/15 01:01:46;;;;;;;26.95;16.02;;;8.10;86.00;;;;;;5072841;28;20024;-37
2021/11/15 01:04:12;;;;;;;24.83;14.75;;;8.10;86.30;;;;;;5072898;28;20043;-37
2021/11/15 01:06:38;;;;;;;26.63;16.15;;;8.20;85.80;;;;;;5072412;28;20068;-37
2021/11/15 01:09:04;;;;;;;29.70;17.73;;;8.20;86.10;;;;;;5072511;28;20440;-37
2021/11/15 01:11:30;;;;;;;29.92;16.48;;;8.10;85.90;;;;;;5072826;28;20017;-37
2021/11/15 01:13:56;;;;;;;30.85;18.67;;;8.10;86.00;;;;;;5072630;28;20033;-37
2021/11/15 01:16:22;;;;;;;28.95;17.65;;;8.10;86.00;;;;;;5072242;28;20058;-36
2021/11/15 01:18:50;;;;;;;29.88;19.23;;;8.00;86.40;;;;;;5072362;28;20337;-37
2021/11/15 01:21:16;;;;;;;29.98;16.98;;;8.00;86.30;;;;;;5072326;28;20024;-37
2021/11/15 01:23:43;;;;;;;29.08;17.77;;;8.10;86.30;;;;;;5072677;28;20032;-37
2021/11/15 01:26:10;;;;;;;29.73;19.23;;;8.10;86.30;;;;;;5072646;28;20044;-37
2021/11/15 01:28:37;;;;;;;34.53;20.27;;;8.10;86.20;;;;;;5072097;28;20020;-36
2021/11/15 01:31:03;;;;;;;31.38;18.67;;;8.00;86.60;;;;;;5072464;28;20035;-37
2021/11/15 01:33:29;;;;;;;38.72;21.45;;;8.00;86.40;;;;;;5072581;28;20028;-37
2021/11/15 01:35:55;;;;;;;36.10;20.38;;;8.00;86.50;;;;;;5072260;28;20039;-37
2021/11/15 01:38:22;;;;;;;33.47;18.27;;;8.10;86.40;;;;;;5072543;28;20025;-37
2021/11/15 01:40:47;;;;;;;34.60;21.15;;;8.10;86.50;;;;;;5072123;28;20024;-37
2021/11/15 01:43:13;;;;;;;29.10;18.48;;;8.00;86.60;;;;;;5072160;28;20032;-37
2021/11/15 01:45:40;;;;;;;31.45;19.63;;;8.00;86.70;;;;;;5072434;28;20054;-37
2021/11/15 01:48:08;;;;;;;37.40;20.35;;;8.10;86.50;;;;;;5072210;28;20071;-37
2021/11/15 01:50:36;;;;;;;33.25;19.52;;;8.00;86.60;;;;;;5072199;28;20024;-37
2021/11/15 01:53:03;;;;;;;33.95;20.95;;;8.10;86.60;;;;;;5072661;28;20032;-37
2021/11/15 01:55:29;;;;;;;38.47;22.35;;;8.10;86.40;;;;;;5075629;28;20016;-38
2021/11/15 01:57:57;;;;;;;35.70;20.50;;;8.00;86.30;;;;;;5075965;28;20032;-37
2021/11/15 02:00:29;;;;;;;34.75;21.10;;;8.10;86.70;;;;;;5075346;28;20036;-37
2021/11/15 02:02:55;;;;;;;34.38;21.23;;;8.10;86.60;;;;;;5075884;28;20024;-37
2021/11/15 02:05:21;;;;;;;37.53;21.88;;;8.10;86.90;;;;;;5075354;28;20055;-37
2021/11/15 02:07:47;;;;;;;34.85;18.40;;;8.10;86.70;;;;;;5075178;28;20083;-36
2021/11/15 02:10:12;;;;;;;34.35;19.83;;;8.00;86.60;;;;;;5075573;28;20028;-37
2021/11/15 02:12:40;;;;;;;35.55;19.67;;;7.90;86.80;;;;;;5075497;28;20103;-37
2021/11/15 02:15:10;;;;;;;33.03;20.75;;;8.00;86.50;;;;;;5075959;28;20033;-37
2021/11/15 02:17:36;;;;;;;37.97;20.85;;;8.00;86.60;;;;;;5075393;28;20499;-36
2021/11/15 02:20:06;;;;;;;39.92;23.67;;;8.00;86.40;;;;;;5074948;28;20452;-37
2021/11/15 02:22:31;;;;;;;41.03;22.10;;;8.00;86.30;;;;;;5075201;28;20021;-37
2021/11/15 02:25:00;;;;;;;36.92;21.35;;;7.90;86.30;;;;;;5075389;28;20028;-37
2021/11/15 02:27:26;;;;;;;38.80;21.48;;;7.90;86.80;;;;;;5075755;28;20529;-37
2021/11/15 02:29:52;;;;;;;34.75;21.00;;;8.10;86.30;;;;;;5074820;28;20024;-37
2021/11/15 02:32:17;;;;;;;45.22;23.60;;;8.00;86.70;;;;;;5074824;28;20036;-37
2021/11/15 02:34:43;;;;;;;36.53;20.88;;;8.00;86.60;;;;;;5075269;28;20032;-37
2021/11/15 02:37:09;;;;;;;38.65;20.70;;;8.10;86.50;;;;;;5075148;28;20115;-37
2021/11/15 02:39:34;;;;;;;34.42;20.45;;;8.00;86.60;;;;;;5075067;28;20051;-37
2021/11/15 02:42:00;;;;;;;37.72;22.40;;;7.90;86.70;;;;;;5074815;28;20143;-37
2021/11/15 02:44:27;;;;;;;40.42;19.92;;;7.90;86.70;;;;;;5074779;28;20036;-37
2021/11/15 02:46:53;;;;;;;39.58;21.30;;;7.80;86.90;;;;;;5074818;28;20025;-37
2021/11/15 02:49:19;;;;;;;38.72;20.70;;;7.90;86.70;;;;;;5074645;28;20044;-37
2021/11/15 02:51:44;;;;;;;33.47;18.73;;;7.90;86.90;;;;;;5074878;28;20048;-37
2021/11/15 02:54:10;;;;;;;32.67;16.88;;;7.80;86.50;;;;;;5073343;28;20473;-37
2021/11/15 02:56:40;;;;;;;37.83;18.42;;;7.90;86.40;;;;;;5075082;28;20021;-37
2021/11/15 02:59:05;;;;;;;43.27;19.60;;;7.80;86.50;;;;;;5074569;28;20024;-37
2021/11/15 03:01:31;;;;;;;34.92;20.33;;;7.90;86.60;;;;;;5074538;28;20020;-37
2021/11/15 03:03:57;;;;;;;36.97;20.67;;;7.90;86.50;;;;;;5074390;28;20024;-37
2021/11/15 03:06:22;;;;;;;37.10;20.35;;;7.90;86.50;;;;;;5073164;28;20036;-37
2021/11/15 03:08:48;;;;;;;37.28;22.40;;;7.90;86.30;;;;;;5074506;28;20025;-37
2021/11/15 03:11:14;;;;;;;38.70;20.73;;;7.80;86.70;;;;;;5074333;28;20033;-37
2021/11/15 03:13:46;;;;;;;43.13;21.75;;;7.80;86.90;;;;;;5075225;28;20365;-36
2021/11/15 03:16:12;;;;;;;40.40;23.02;;;7.80;87.10;;;;;;5074230;28;20020;-37
2021/11/15 03:18:39;;;;;;;45.78;24.80;;;7.70;87.20;;;;;;5074425;28;20354;-37
2021/11/15 03:21:11;;;;;;;40.53;22.40;;;7.80;87.20;;;;;;5056275;28;20032;-37
2021/11/15 03:23:41;;;;;;;40.13;20.15;;;7.80;87.10;;;;;;5074107;28;20036;-37
2021/11/15 03:26:07;;;;;;;41.57;21.97;;;7.70;87.10;;;;;;5074512;28;20028;-37
2021/11/15 03:28:37;;;;;;;39.65;20.60;;;7.70;87.40;;;;;;5072678;28;20271;-37
2021/11/15 03:31:06;;;;;;;41.00;22.57;;;7.70;87.00;;;;;;5073898;28;20036;-36
2021/11/15 03:33:33;;;;;;;34.78;19.75;;;7.80;87.00;;;;;;5074136;28;20055;-37
2021/11/15 03:35:59;;;;;;;35.90;18.75;;;7.80;86.90;;;;;;5073792;28;20043;-36
2021/11/15 03:38:26;;;;;;;30.80;17.67;;;7.80;87.00;;;;;;5073774;28;20021;-36
2021/11/15 03:40:52;;;;;;;38.00;18.92;;;7.80;86.90;;;;;;5073734;28;20494;-37
2021/11/15 03:43:17;;;;;;;37.38;19.50;;;7.80;86.80;;;;;;5073698;28;20055;-37
2021/11/15 03:45:43;;;;;;;36.80;20.25;;;7.70;87.00;;;;;;5073854;28;20040;-37
2021/11/15 03:48:11;;;;;;;34.80;18.25;;;7.70;87.20;;;;;;5073613;28;20517;-37
2021/11/15 03:50:37;;;;;;;32.30;18.38;;;7.80;87.00;;;;;;5072226;28;20369;-37
2021/11/15 03:53:06;;;;;;;44.75;21.33;;;7.80;87.00;;;;;;5073574;28;20029;-36
2021/11/15 03:55:31;;;;;;;37.63;18.85;;;7.80;87.00;;;;;;5073489;28;20021;-37
2021/11/15 03:57:57;;;;;;;37.45;20.30;;;7.70;87.00;;;;;;5073707;28;20108;-37
2021/11/15 04:00:28;;;;;;;34.88;18.65;;;7.70;87.20;;;;;;5073328;28;20056;-37
2021/11/15 04:03:00;;;;;;;30.45;16.75;;;7.70;87.20;;;;;;5073633;28;20020;-36
2021/11/15 04:05:31;;;;;;;31.75;15.40;;;7.80;86.90;;;;;;5073260;28;20025;-36
2021/11/15 04:07:56;;;;;;;;;;;7.70;87.10;;;;;;5073980;28;20106;-37
2021/11/15 04:10:26;;;;;;;40.03;20.45;;;7.60;87.20;;;;;;5073536;28;19909;-37
2021/11/15 04:12:53;;;;;;;39.60;21.05;;;7.70;87.00;;;;;;5073271;28;20033;-37
2021/11/15 04:15:19;;;;;;;37.42;19.30;;;7.60;87.40;;;;;;5071804;28;20082;-37
2021/11/15 04:17:46;;;;;;;36.47;19.33;;;7.60;87.50;;;;;;5072786;28;20423;-37
2021/11/15 04:20:15;;;;;;;38.05;20.02;;;7.70;87.00;;;;;;5072980;28;20033;-37
2021/11/15 04:22:41;;;;;;;38.95;18.85;;;7.70;87.20;;;;;;5072907;28;20066;-37
2021/11/15 04:25:09;;;;;;;34.15;18.33;;;7.70;87.30;;;;;;5072928;28;20033;-36
2021/11/15 04:27:35;;;;;;;39.28;19.48;;;7.60;87.20;;;;;;5072889;28;20031;-37
2021/11/15 04:30:02;;;;;;;41.03;18.33;;;7.70;87.40;;;;;;5073041;28;20139;-36
2021/11/15 04:32:28;;;;;;;36.85;18.85;;;7.80;87.00;;;;;;5072708;28;20123;-36
2021/11/15 04:34:53;;;;;;;35.30;19.23;;;7.70;87.10;;;;;;5072926;28;20063;-37
2021/11/15 04:37:19;;;;;;;36.70;18.88;;;7.60;87.50;;;;;;5073432;28;20029;-37
2021/11/15 04:39:45;;;;;;;42.40;19.58;;;7.60;87.40;;;;;;5073237;28;20031;-37
2021/11/15 04:42:11;;;;;;;38.83;20.65;;;7.60;87.60;;;;;;5073006;28;20384;-36
2021/11/15 04:44:37;;;;;;;40.28;18.55;;;7.60;87.30;;;;;;5073643;28;20024;-37
2021/11/15 04:47:07;;;;;;;38.80;19.33;;;7.50;87.50;;;;;;5075860;28;20065;-37
2021/11/15 04:49:32;;;;;;;37.53;19.42;;;7.70;87.30;;;;;;5074247;28;20489;-37
2021/11/15 04:51:58;;;;;;;36.17;19.20;;;7.60;87.40;;;;;;5072638;28;20024;-37
2021/11/15 04:54:23;;;;;;;43.55;21.85;;;7.60;87.60;;;;;;5074021;28;20028;-37
2021/11/15 04:56:49;;;;;;;41.83;21.88;;;7.60;87.50;;;;;;5072848;28;20056;-37
2021/11/15 04:59:15;;;;;;;34.92;18.50;;;7.60;87.60;;;;;;5076051;28;20025;-36
2021/11/15 05:01:41;;;;;;;33.58;18.60;;;7.70;87.20;;;;;;5074631;28;20099;-36
2021/11/15 05:04:07;;;;;;;38.78;20.20;;;7.50;87.50;;;;;;5073527;28;20104;-36
2021/11/15 05:06:33;;;;;;;42.85;21.48;;;7.60;87.80;;;;;;5072487;28;20405;-37
2021/11/15 05:09:00;;;;;;;41.85;21.40;;;7.60;87.50;;;;;;5073090;28;20534;-37
2021/11/15 05:11:25;;;;;;;39.85;20.77;;;7.60;87.70;;;;;;5072584;28;20047;-36
2021/11/15 05:13:51;;;;;;;44.53;21.13;;;7.60;87.60;;;;;;5072517;28;20031;-36
2021/11/15 05:16:17;;;;;;;49.50;22.77;;;7.60;87.40;;;;;;5074015;28;20028;-37
2021/11/15 05:18:48;;;;;;;45.10;21.30;;;7.60;87.50;;;;;;5076174;28;20028;-36
2021/11/15 05:21:14;;;;;;;50.17;23.20;;;7.60;87.70;;;;;;5076295;28;20078;-36
2021/11/15 05:23:41;;;;;;;39.55;22.08;;;7.50;87.60;;;;;;5072503;28;20099;-36
2021/11/15 05:26:07;;;;;;;46.78;24.45;;;7.50;87.60;;;;;;5072564;28;20528;-36
2021/11/15 05:28:33;;;;;;;42.85;22.25;;;7.50;87.70;;;;;;5073068;28;20063;-36
2021/11/15 05:30:58;;;;;;;41.33;20.75;;;7.50;87.70;;;;;;5077048;28;20021;-37
2021/11/15 05:33:24;;;;;;;47.22;23.05;;;7.60;87.60;;;;;;5076579;28;20056;-36
2021/11/15 05:35:50;;;;;;;46.53;24.42;;;7.70;87.40;;;;;;5076156;28;20021;-37
2021/11/15 05:38:15;;;;;;;42.92;21.70;;;7.70;87.20;;;;;;5076119;28;20491;-37
2021/11/15 05:40:41;;;;;;;49.10;24.95;;;7.60;87.60;;;;;;5075974;28;20059;-37
2021/11/15 05:43:07;;;;;;;41.97;23.25;;;7.60;87.60;;;;;;5076306;28;20306;-37
2021/11/15 05:45:33;;;;;;;40.38;22.23;;;7.60;87.40;;;;;;5076212;28;20024;-36
2021/11/15 05:47:59;;;;;;;42.85;21.83;;;7.50;87.60;;;;;;5075872;28;20091;-37
2021/11/15 05:50:27;;;;;;;42.28;21.77;;;7.60;87.60;;;;;;5075747;28;20100;-37
2021/11/15 05:52:54;;;;;;;42.45;20.60;;;7.60;87.70;;;;;;5075945;28;20020;-37
2021/11/15 05:55:23;;;;;;;40.30;20.02;;;7.70;87.50;;;;;;5076064;28;20147;-37
2021/11/15 05:57:51;;;;;;;34.90;19.70;;;7.70;87.30;;;;;;5075825;28;20035;-37
2021/11/15 06:00:21;;;;;;;41.97;21.20;;;7.50;87.60;;;;;;5074353;28;20028;-37
2021/11/15 06:02:47;;;;;;;41.00;20.98;;;7.50;87.80;;;;;;5075105;28;20031;-37
2021/11/15 06:05:13;;;;;;;39.60;19.65;;;7.60;87.60;;;;;;5075786;28;20047;-37
2021/11/15 06:07:40;;;;;;;40.42;19.38;;;7.70;87.30;;;;;;5075340;28;20060;-37
2021/11/15 06:10:07;;;;;;;34.88;19.10;;;7.50;87.40;;;;;;5075784;28;20471;-37
2021/11/15 06:12:32;;;;;;;35.13;19.88;;;7.60;87.50;;;;;;5075232;28;20138;-37
2021/11/15 06:14:58;;;;;;;37.53;20.38;;;7.50;87.40;;;;;;5074030;28;20090;-37
2021/11/15 06:17:24;;;;;;;41.78;20.30;;;7.50;87.70;;;;;;5073929;28;20032;-37
2021/11/15 06:19:50;;;;;;;30.58;19.27;;;7.60;87.40;;;;;;5073865;28;20052;-37
2021/11/15 06:22:15;;;;;;;37.42;20.83;;;7.50;87.50;;;;;;5075059;28;20020;-37
2021/11/15 06:24:47;;;;;;;38.33;20.40;;;7.60;87.80;;;;;;5075105;28;20031;-37
2021/11/15 06:27:14;;;;;;;42.03;22.92;;;7.60;87.80;;;;;;5075158;28;20041;-37
2021/11/15 06:29:40;;;;;;;38.10;19.63;;;7.60;87.50;;;;;;5074028;28;20094;-37
2021/11/15 06:32:07;;;;;;;34.22;19.08;;;7.50;87.90;;;;;;5075243;28;20020;-37
2021/11/15 06:34:33;;;;;;;35.08;18.70;;;7.50;88.00;;;;;;5074837;28;20030;-37
2021/11/15 06:36:59;;;;;;;33.53;17.65;;;7.40;88.10;;;;;;5075792;28;20059;-37
2021/11/15 06:39:26;;;;;;;43.53;22.42;;;7.50;88.00;;;;;;5075546;28;20028;-37
2021/11/15 06:41:54;;;;;;;41.28;20.95;;;7.50;87.80;;;;;;5074736;28;20384;-37
2021/11/15 06:44:20;;;;;;;39.65;20.75;;;7.60;87.70;;;;;;5073765;28;20024;-37
2021/11/15 06:46:46;;;;;;;40.72;20.27;;;7.60;87.60;;;;;;5074910;28;20021;-37
2021/11/15 06:49:12;;;;;;;39.00;18.00;;;7.60;87.60;;;;;;5074575;28;20073;-37
2021/11/15 06:51:38;;;;;;;40.65;21.40;;;7.40;87.60;;;;;;5074461;28;20059;-38
2021/11/15 06:54:04;;;;;;;33.35;18.50;;;7.50;87.80;;;;;;5074762;28;20036;-38
2021/11/15 06:56:30;;;;;;;41.50;20.23;;;7.50;88.00;;;;;;5074716;28;20075;-38
2021/11/15 06:58:56;;;;;;;42.65;20.77;;;7.50;87.70;;;;;;5074483;28;20060;-36
2021/11/15 07:01:22;;;;;;;41.90;21.45;;;7.50;87.90;;;;;;5073010;28;20114;-37
2021/11/15 07:03:48;;;;;;;32.17;17.35;;;7.40;87.80;;;;;;5073075;28;20032;-37
2021/11/15 07:06:14;;;;;;;33.63;17.20;;;7.40;87.90;;;;;;5074458;28;20043;-36
2021/11/15 07:08:40;;;;;;;37.38;18.88;;;7.30;87.80;;;;;;5074783;28;20028;-36
2021/11/15 07:11:06;;;;;;;38.90;19.17;;;7.40;88.20;;;;;;5074407;28;20032;-37
2021/11/15 07:13:32;;;;;;;36.72;17.75;;;7.40;87.90;;;;;;5074107;28;20060;-37
2021/11/15 07:15:57;;;;;;;42.95;17.98;;;7.40;88.00;;;;;;5073996;28;20016;-36
2021/11/15 07:18:26;;;;;;;40.20;20.90;;;7.30;88.30;;;;;;5073712;28;20068;-36
2021/11/15 07:20:52;;;;;;;48.92;20.80;;;7.30;88.50;;;;;;5074049;28;20032;-36
2021/11/15 07:23:18;;;;;;;40.25;18.42;;;7.30;88.50;;;;;;5073909;28;20070;-37
2021/11/15 07:25:43;;;;;;;47.30;19.95;;;7.30;88.30;;;;;;5072489;28;20016;-37
2021/11/15 07:28:09;;;;;;;30.17;14.07;;;7.40;88.10;;;;;;5072145;28;20029;-36
2021/11/15 07:30:35;;;;;;;32.83;17.48;;;7.30;88.00;;;;;;5073961;28;20048;-37
2021/11/15 07:33:01;;;;;;;32.83;16.77;;;7.20;88.30;;;;;;5074128;28;20043;-39
2021/11/15 07:35:26;;;;;;;38.35;18.17;;;7.20;88.60;;;;;;5074166;28;20032;-38
2021/11/15 07:37:52;;;;;;;46.75;19.23;;;7.20;88.70;;;;;;5074269;28;20433;-41
2021/11/15 07:40:18;;;;;;;38.03;17.58;;;7.20;88.60;;;;;;5073739;28;20469;-37
2021/11/15 07:42:45;;;;;;;39.33;16.80;;;7.30;88.40;;;;;;5073290;28;20098;-37
2021/11/15 07:45:11;;;;;;;34.80;15.23;;;7.30;88.40;;;;;;5073027;28;20063;-37
2021/11/15 07:47:37;;;;;;;34.53;16.55;;;7.20;88.30;;;;;;5073701;28;20025;-38
2021/11/15 07:50:06;;;;;;;35.03;14.90;;;7.20;88.60;;;;;;5073087;28;20035;-36
2021/11/15 07:52:32;;;;;;;31.10;15.85;;;7.20;88.50;;;;;;5073002;28;20531;-37
2021/11/15 07:55:01;;;;;;;30.17;13.48;;;7.10;88.50;;;;;;5073706;28;20063;-37
2021/11/15 07:57:26;;;;;;;35.42;15.82;;;7.10;88.20;;;;;;5073366;28;20039;-37
2021/11/15 07:59:53;;;;;;;23.23;12.35;;;7.10;88.30;;;;;;5073569;28;20056;-36
2021/11/15 08:02:18;;;;;;;26.20;13.95;;;7.10;88.20;;;;;;5073349;28;20575;-36
2021/11/15 08:04:46;;;;;;;30.85;13.35;;;7.00;88.30;;;;;;5073221;28;20099;-37
2021/11/15 08:07:12;;;;;;;28.98;14.20;;;6.90;88.70;;;;;;5072661;28;20076;-37
2021/11/15 08:09:39;;;;;;;39.33;16.08;;;6.80;89.10;;;;;;5072974;28;20055;-37
2021/11/15 08:12:07;;;;;;;32.38;16.08;;;6.90;89.00;;;;;;5071282;28;20099;-37
2021/11/15 08:14:39;;;;;;;32.13;16.80;;;7.00;88.50;;;;;;5073106;28;20028;-37
2021/11/15 08:17:05;;;;;;;26.48;13.23;;;7.10;88.50;;;;;;5072780;28;20512;-37
2021/11/15 08:19:31;;;;;;;33.08;15.00;;;7.10;88.30;;;;;;5072759;28;20101;-37
2021/11/15 08:21:58;;;;;;;32.78;15.18;;;7.10;88.10;;;;;;5072887;28;20024;-37
2021/11/15 08:24:42;;;;;;;36.72;18.23;;;7.00;88.00;;;;;;5072715;28;20029;-37
2021/11/15 08:27:09;;;;;;;25.63;12.98;;;7.00;88.30;;;;;;5072796;28;20532;-38
2021/11/15 08:29:35;;;;;;;27.77;14.32;;;7.10;88.20;;;;;;5072305;28;20020;-37
2021/11/15 08:32:06;;;;;;;27.13;13.80;;;7.10;87.80;;;;;;5072708;28;20039;-50
2021/11/15 08:34:35;;;;;;;23.55;10.77;;;7.10;87.90;;;;;;5072812;28;20031;-49
2021/11/15 08:37:03;;;;;;;22.30;9.60;;;7.20;87.60;;;;;;5072625;28;20388;-50
2021/11/15 08:39:32;;;;;;;15.95;8.95;;;7.10;86.90;;;;;;5072707;28;20033;-49
2021/11/15 08:42:01;;;;;;;16.77;8.60;;;7.00;86.70;;;;;;5071767;28;20032;-50
2021/11/15 08:44:28;;;;;;;19.67;10.15;;;7.10;86.70;;;;;;5073053;28;20032;-49
2021/11/15 08:46:56;;;;;;;22.88;9.80;;;7.00;86.60;;;;;;5072465;28;20028;-47
2021/11/15 08:49:25;;;;;;;23.48;11.57;;;7.10;86.40;;;;;;5072721;28;20418;-48
2021/11/15 08:51:51;;;;;;;17.90;10.52;;;7.10;86.40;;;;;;5072590;28;20044;-50
2021/11/15 08:54:19;;;;;;;21.83;10.75;;;7.10;86.10;;;;;;5072795;28;20477;-51
2021/11/15 08:56:54;;;;;;;17.48;9.10;;;7.10;86.30;;;;;;5073007;28;20090;-48
2021/11/15 08:59:20;;;;;;;18.60;10.30;;;7.10;86.40;;;;;;5072387;28;20021;-48
2021/11/15 09:01:47;;;;;;;23.70;11.75;;;7.00;86.30;;;;;;5072384;28;20074;-50
2021/11/15 09:04:16;;;;;;;21.88;10.38;;;7.10;86.50;;;;;;5074155;28;20037;-47
2021/11/15 09:06:43;;;;;;;21.55;11.05;;;7.20;86.30;;;;;;5076259;28;20043;-47
2021/11/15 09:09:14;;;;;;;20.10;11.48;;;7.10;86.70;;;;;;5076568;28;20372;-50
2021/11/15 09:11:51;;;;;;;23.85;10.75;;;7.00;86.70;;;;;;5076388;28;20028;-47
2021/11/15 09:14:18;;;;;;;27.83;12.30;;;7.10;86.60;;;;;;5075870;28;20115;-49
2021/11/15 09:16:45;;;;;;;23.00;11.35;;;7.00;87.10;;;;;;5075888;28;20082;-46
2021/11/15 09:19:12;;;;;;;26.40;13.45;;;7.00;87.00;;;;;;5075823;28;20032;-48
2021/11/15 09:21:39;;;;;;;18.50;9.93;;;7.10;87.30;;;;;;5075528;28;20078;-49
2021/11/15 09:24:05;;;;;;;19.42;9.65;;;7.20;87.00;;;;;;5075777;28;20150;-48
2021/11/15 09:26:31;;;;;;;21.83;10.63;;;7.10;86.80;;;;;;5076596;28;20492;-45
2021/11/15 09:28:59;;;;;;;26.63;13.85;;;7.10;87.20;;;;;;5074981;28;20396;-48
2021/11/15 09:31:26;;;;;;;24.50;12.15;;;7.10;87.30;;;;;;5075743;28;20099;-47
2021/11/15 09:33:52;;;;;;;24.77;14.13;;;7.00;87.30;;;;;;5075334;28;20036;-47
2021/11/15 09:36:23;;;;;;;27.02;13.63;;;7.10;87.40;;;;;;5075267;28;20108;-48
2021/11/15 09:38:54;;;;;;;24.55;11.65;;;7.00;87.70;;;;;;5075577;28;20024;-48
2021/11/15 09:41:21;;;;;;;29.20;12.73;;;7.10;87.60;;;;;;5075952;28;20111;-48
2021/11/15 09:43:46;;;;;;;23.38;11.52;;;7.00;87.80;;;;;;5075714;28;20107;-50
2021/11/15 09:46:17;;;;;;;24.40;13.07;;;6.90;88.00;;;;;;5075435;28;20071;-50
2021/11/15 09:48:46;;;;;;;25.25;13.20;;;7.00;88.10;;;;;;5075601;28;20437;-47
2021/11/15 09:51:13;;;;;;;19.95;11.35;;;6.90;88.00;;;;;;5074869;28;20059;-49
2021/11/15 09:53:39;;;;;;;25.65;12.93;;;7.00;87.70;;;;;;5075119;28;20017;-47
2021/11/15 09:56:07;;;;;;;27.52;12.90;;;7.00;88.00;;;;;;5074997;28;20051;-47
2021/11/15 09:58:34;;;;;;;28.92;14.65;;;6.90;87.90;;;;;;5075066;28;20443;-47
2021/11/15 10:00:59;;;;;;;32.13;13.82;;;6.90;87.80;;;;;;5073503;28;20126;-49
2021/11/15 10:03:26;;;;;;;22.10;14.45;;;7.00;87.60;;;;;;5075140;28;20112;-47
2021/11/15 10:05:53;;;;;;;25.55;13.02;;;7.00;87.30;;;;;;5074917;28;20492;-47
2021/11/15 10:08:19;;;;;;;27.58;13.70;;;7.10;87.20;;;;;;5074975;28;20028;-47
2021/11/15 10:10:57;;;;;;;25.65;11.85;;;7.00;87.30;;;;;;5075083;28;20388;-49
2021/11/15 10:13:26;;;;;;;26.58;14.30;;;7.10;87.10;;;;;;5075070;28;20056;-48
2021/11/15 10:16:00;;;;;;;28.40;13.95;;;7.10;87.00;;;;;;5074756;28;20492;-47
2021/11/15 10:18:39;;;;;;;32.50;13.68;;;7.00;87.20;;;;;;5073579;28;20048;-47
2021/11/15 10:21:19;;;;;;;27.95;14.88;;;7.10;86.90;;;;;;5074807;28;20499;-49
2021/11/15 10:23:49;;;;;;;26.33;13.20;;;7.00;86.90;;;;;;5074949;28;20039;-48
2021/11/15 10:26:29;;;;;;;25.88;13.75;;;7.00;87.10;;;;;;5075034;28;20354;-48
2021/11/15 10:28:59;;;;;;;31.17;14.80;;;7.20;87.10;;;;;;5075086;28;20071;-47
2021/11/15 10:31:45;;;;;;;36.65;18.02;;;7.30;86.40;;;;;;5074556;28;20025;-48
2021/11/15 10:34:39;;;;;;;27.95;16.15;;;7.30;86.00;;;;;;5074187;28;20176;-48
2021/11/15 10:37:20;;;;;;;29.30;15.88;;;7.50;85.70;;;;;;5069951;28;20044;-49
2021/11/15 10:39:52;;;;;;;30.33;15.18;;;7.30;85.70;;;;;;5074299;28;20468;-50
2021/11/15 10:42:21;;;;;;;32.13;13.63;;;7.30;86.30;;;;;;5074317;28;20053;-51
2021/11/15 10:44:49;;;;;;;25.42;13.88;;;7.40;86.10;;;;;;5074834;28;20024;-47
2021/11/15 10:47:17;;;;;;;23.15;13.05;;;7.40;85.90;;;;;;5074076;28;20012;-49
2021/11/15 10:49:44;;;;;;;30.30;15.15;;;7.30;85.70;;;;;;5074545;28;20036;-49
2021/11/15 10:52:15;;;;;;;30.88;13.98;;;7.30;85.80;;;;;;5074735;28;20025;-49
2021/11/15 10:57:20;;;;;;;31.13;12.60;;;7.30;85.60;;;;;;5074549;28;20032;-51
2021/11/15 11:00:06;;;;;;;28.35;13.57;;;7.40;85.10;;;;;;5072940;28;20423;-51
2021/11/15 11:02:36;;;;;;;26.30;13.10;;;7.30;85.40;;;;;;5074092;28;20078;-48
2021/11/15 11:05:14;;;;;;;21.13;11.07;;;7.40;85.30;;;;;;5073026;28;20027;-48
2021/11/15 11:07:44;;;;;;;26.05;14.13;;;7.30;85.20;;;;;;5075231;28;20044;-49
2021/11/15 11:10:13;;;;;;;26.38;13.00;;;7.40;84.70;;;;;;5074130;28;20499;-47
2021/11/15 11:12:45;;;;;;;20.55;11.65;;;7.30;85.10;;;;;;5072582;28;20362;-47
2021/11/15 11:15:33;;;;;;;22.13;11.20;;;7.30;84.60;;;;;;5074079;28;20132;-48
2021/11/15 11:18:14;;;;;;;26.45;12.50;;;7.20;85.00;;;;;;5074002;28;20036;-50
2021/11/15 11:21:25;;;;;;;24.02;12.70;;;7.20;85.20;;;;;;5073641;28;20415;-49
2021/11/15 11:26:28;;;;;;;20.90;12.27;;;7.30;84.70;;;;;;5073258;28;20016;-49
2021/11/15 11:29:00;;;;;;;21.85;11.52;;;7.30;84.90;;;;;;5074115;28;20449;-49
2021/11/15 11:31:30;;;;;;;23.42;12.85;;;7.30;84.70;;;;;;5073568;28;20025;-48
2021/11/15 11:33:56;;;;;;;;;;;7.30;84.40;;;;;;5073995;28;20025;-50
2021/11/15 11:36:22;;;;;;;26.30;13.38;;;7.30;84.50;;;;;;5073640;28;19910;-50
2021/11/15 11:38:49;;;;;;;23.92;12.18;;;7.30;84.40;;;;;;5073445;28;20131;-48
2021/11/15 11:41:16;;;;;;;30.17;14.95;;;7.30;84.50;;;;;;5073644;28;20461;-48
2021/11/15 11:43:42;;;;;;;29.58;15.35;;;7.30;84.40;;;;;;5073447;28;20024;-50
2021/11/15 11:46:12;;;;;;;28.38;14.93;;;7.40;84.20;;;;;;5073260;28;20077;-50
2021/11/15 11:48:39;;;;;;;30.55;16.98;;;7.40;83.10;;;;;;5072150;28;20093;-51
2021/11/15 11:51:05;;;;;;;31.30;19.98;;;7.40;82.80;;;;;;5073451;28;20044;-48
2021/11/15 11:53:34;;;;;;;36.67;20.42;;;7.30;81.50;;;;;;5071621;28;20063;-49
2021/11/15 11:56:12;;;;;;;33.25;20.30;;;7.40;81.50;;;;;;5073110;28;20021;-53
2021/11/15 11:58:39;;;;;;;36.13;19.98;;;7.50;80.80;;;;;;5073250;28;20177;-49
2021/11/15 12:01:14;;;;;;;33.15;18.90;;;7.60;80.00;;;;;;5073077;28;20029;-48
2021/11/15 12:03:39;;;;;;;29.45;18.20;;;7.60;80.00;;;;;;5073033;28;20105;-50
2021/11/15 12:06:28;;;;;;;30.02;19.27;;;7.60;79.50;;;;;;5072215;28;20083;-48
2021/11/15 12:08:56;;;;;;;26.08;16.45;;;7.70;79.50;;;;;;5072368;28;20154;-49
2021/11/15 12:11:33;;;;;;;27.42;17.88;;;7.80;79.60;;;;;;5072492;28;20106;-51
2021/11/15 12:14:00;;;;;;;29.08;17.67;;;7.70;79.40;;;;;;5072859;28;20028;-47
2021/11/15 12:16:58;;;;;;;24.35;16.52;;;7.60;79.70;;;;;;5072660;28;20025;-49
2021/11/15 12:19:53;;;;;;;24.77;13.27;;;7.50;80.20;;;;;;5072340;28;20044;-49
2021/11/15 12:22:21;;;;;;;26.08;14.80;;;7.50;79.70;;;;;;5072567;28;20108;-51
2021/11/15 12:25:06;;;;;;;24.33;11.55;;;7.50;80.00;;;;;;5072542;28;20149;-48
2021/11/15 12:27:46;;;;;;;21.73;14.00;;;7.40;80.10;;;;;;5072488;28;20025;-47
2021/11/15 12:30:13;;;;;;;;;;;7.50;80.20;;;;;;5072448;28;20058;-49
2021/11/15 12:32:41;;;;;;;29.95;14.02;;;7.50;79.80;;;;;;5072507;28;19943;-49
2021/11/15 12:35:07;;;;;;;25.60;14.45;;;7.60;79.70;;;;;;5072509;28;20089;-47
2021/11/15 12:37:38;;;;;;;26.17;15.18;;;7.50;79.70;;;;;;5072669;28;20029;-47
2021/11/15 12:40:06;;;;;;;25.00;14.45;;;7.50;80.10;;;;;;5072468;28;20477;-50
2021/11/15 12:42:32;;;;;;;30.83;16.17;;;7.50;80.10;;;;;;5072436;28;20021;-51
2021/11/15 12:45:11;;;;;;;24.38;13.82;;;7.50;79.90;;;;;;5072530;28;20396;-52
2021/11/15 12:47:38;;;;;;;23.27;14.25;;;7.40;80.20;;;;;;5072263;28;20036;-50